createdAt,value
2019-06-10T00:00:13.733Z,2.60
2019-06-10T00:01:11.905Z,2.90
2019-06-10T00:02:11.081Z,2.80
2019-06-10T00:03:11.817Z,2.80
2019-06-10T00:04:12.378Z,2.90
2019-06-10T00:05:11.087Z,2.70
2019-06-10T00:06:11.669Z,2.70
2019-06-10T00:07:11.830Z,2.80
2019-06-10T00:08:12.119Z,2.50
2019-06-10T00:09:11.889Z,2.50
2019-06-10T00:10:11.387Z,2.70
2019-06-10T00:11:11.798Z,2.80
2019-06-10T00:12:12.750Z,2.60
2019-06-10T00:13:12.150Z,2.70
2019-06-10T00:14:11.602Z,2.70
2019-06-10T00:15:11.663Z,2.60
2019-06-10T00:16:11.722Z,2.70
2019-06-10T00:17:11.784Z,3.00
2019-06-10T00:18:34.327Z,3.00
2019-06-10T00:19:12.771Z,3.10
2019-06-10T00:20:11.965Z,3.00
2019-06-10T00:21:12.027Z,2.90
2019-06-10T00:22:12.087Z,2.90
2019-06-10T00:23:12.641Z,2.80
2019-06-10T00:24:12.208Z,2.70
2019-06-10T00:25:12.276Z,2.80
2019-06-10T00:26:12.690Z,2.70
2019-06-10T00:27:12.389Z,2.50
2019-06-10T00:28:12.450Z,2.90
2019-06-10T00:29:12.526Z,3.00
2019-06-10T00:30:12.571Z,2.80
2019-06-10T00:31:12.631Z,2.30
2019-06-10T00:32:13.309Z,2.80
2019-06-10T00:33:12.910Z,2.80
2019-06-10T00:34:12.813Z,2.80
2019-06-10T00:35:12.874Z,2.50
2019-06-10T00:36:13.764Z,2.90
2019-06-10T00:37:14.470Z,2.70
2019-06-10T00:38:14.422Z,2.60
2019-06-10T00:39:13.743Z,2.60
2019-06-10T00:40:14.130Z,2.50
2019-06-10T00:41:14.136Z,2.60
2019-06-10T00:42:15.148Z,2.60
2019-06-10T00:43:13.718Z,2.90
2019-06-10T00:44:13.417Z,3.00
2019-06-10T00:45:17.807Z,3.00
2019-06-10T00:46:13.539Z,2.90
2019-06-10T00:47:15.191Z,2.80
2019-06-10T00:48:25.065Z,2.70
2019-06-10T00:49:14.755Z,2.70
2019-06-10T00:50:14.823Z,3.00
2019-06-10T00:51:13.841Z,2.70
2019-06-10T00:52:14.142Z,2.60
2019-06-10T00:53:14.613Z,2.80
2019-06-10T00:54:15.813Z,2.80
2019-06-10T00:55:14.083Z,2.80
2019-06-10T00:56:14.514Z,2.90
2019-06-10T00:57:14.204Z,3.00
2019-06-10T00:58:14.278Z,2.80
2019-06-10T00:59:15.389Z,2.80
2019-06-10T01:00:24.942Z,3.00
2019-06-10T01:01:14.789Z,2.90
2019-06-10T01:02:14.702Z,3.00
2019-06-10T01:03:15.334Z,2.70
2019-06-10T01:04:16.344Z,2.80
2019-06-10T01:05:15.251Z,2.80
2019-06-10T01:06:15.322Z,2.60
2019-06-10T01:07:15.088Z,2.80
2019-06-10T01:08:15.787Z,2.60
2019-06-10T01:09:15.007Z,2.80
2019-06-10T01:10:14.991Z,3.00
2019-06-10T01:11:23.056Z,3.00
2019-06-10T01:12:15.229Z,2.70
2019-06-10T01:13:15.579Z,2.70
2019-06-10T01:14:15.571Z,2.90
2019-06-10T01:15:15.379Z,2.90
2019-06-10T01:16:15.644Z,2.80
2019-06-10T01:17:15.660Z,2.70
2019-06-10T01:18:34.129Z,2.90
2019-06-10T01:19:15.968Z,3.00
2019-06-10T01:20:16.093Z,2.90
2019-06-10T01:21:15.689Z,2.80
2019-06-10T01:22:17.199Z,2.80
2019-06-10T01:23:15.826Z,2.50
2019-06-10T01:24:15.835Z,3.10
2019-06-10T01:25:15.894Z,2.80
2019-06-10T01:26:16.476Z,2.90
2019-06-10T01:27:16.015Z,2.70
2019-06-10T01:28:16.975Z,2.60
2019-06-10T01:29:16.134Z,2.80
2019-06-10T01:30:21.766Z,2.70
2019-06-10T01:31:20.727Z,2.90
2019-06-10T01:32:17.623Z,2.70
2019-06-10T01:33:17.576Z,3.00
2019-06-10T01:34:16.435Z,3.00
2019-06-10T01:35:17.481Z,2.80
2019-06-10T01:36:16.654Z,3.10
2019-06-10T01:37:17.657Z,2.50
2019-06-10T01:38:16.688Z,2.60
2019-06-10T01:39:17.987Z,2.80
2019-06-10T01:40:18.012Z,2.80
2019-06-10T01:41:16.859Z,2.80
2019-06-10T01:42:17.227Z,3.00
2019-06-10T01:43:18.392Z,3.00
2019-06-10T01:44:17.722Z,2.70
2019-06-10T01:45:17.367Z,2.80
2019-06-10T01:46:17.523Z,3.00
2019-06-10T01:47:17.674Z,2.90
2019-06-10T01:48:17.913Z,2.90
2019-06-10T01:49:18.189Z,2.90
2019-06-10T01:50:18.916Z,2.70
2019-06-10T01:51:17.459Z,2.80
2019-06-10T01:52:18.408Z,2.70
2019-06-10T01:53:18.782Z,2.70
2019-06-10T01:54:18.425Z,2.80
2019-06-10T01:55:18.288Z,2.80
2019-06-10T01:56:18.623Z,2.60
2019-06-10T01:57:18.661Z,2.70
2019-06-10T01:58:20.798Z,2.50
2019-06-10T01:59:18.702Z,2.80
2019-06-10T02:00:23.315Z,2.80
2019-06-10T02:01:20.243Z,2.80
2019-06-10T02:02:19.353Z,2.70
2019-06-10T02:03:19.286Z,2.50
2019-06-10T02:04:21.946Z,2.80
2019-06-10T02:05:19.745Z,2.80
2019-06-10T02:06:22.106Z,2.90
2019-06-10T02:07:19.971Z,3.10
2019-06-10T02:08:21.905Z,2.70
2019-06-10T02:09:22.409Z,2.90
2019-06-10T02:10:19.068Z,3.10
2019-06-10T02:11:22.800Z,3.00
2019-06-10T02:12:20.166Z,2.90
2019-06-10T02:13:21.654Z,2.80
2019-06-10T02:14:20.385Z,3.10
2019-06-10T02:15:21.273Z,3.00
2019-06-10T02:16:20.975Z,3.10
2019-06-10T02:17:23.030Z,2.80
2019-06-10T02:18:22.408Z,2.90
2019-06-10T02:19:20.785Z,2.90
2019-06-10T02:20:22.557Z,2.80
2019-06-10T02:21:22.613Z,2.70
2019-06-10T02:22:20.563Z,2.80
2019-06-10T02:23:21.910Z,2.70
2019-06-10T02:24:22.039Z,2.70
2019-06-10T02:25:21.706Z,2.80
2019-06-10T02:26:21.994Z,2.70
2019-06-10T02:27:21.912Z,3.00
2019-06-10T02:28:21.665Z,3.00
2019-06-10T02:29:21.864Z,2.80
2019-06-10T02:30:36.171Z,2.60
2019-06-10T02:31:29.076Z,2.90
2019-06-10T02:32:30.747Z,2.80
2019-06-10T02:33:29.553Z,2.70
2019-06-10T02:34:25.071Z,2.60
2019-06-10T02:35:30.596Z,2.90
2019-06-10T02:36:30.254Z,2.90
2019-06-10T02:37:25.552Z,3.00
2019-06-10T02:38:28.072Z,2.80
2019-06-10T02:39:28.023Z,2.70
2019-06-10T02:40:28.227Z,2.90
2019-06-10T02:41:28.347Z,2.70
2019-06-10T02:42:28.890Z,3.00
2019-06-10T02:43:28.526Z,2.90
2019-06-10T02:44:26.289Z,2.70
2019-06-10T02:45:30.684Z,2.80
2019-06-10T02:46:28.484Z,2.80
2019-06-10T02:47:24.637Z,2.70
2019-06-10T02:48:27.079Z,3.00
2019-06-10T02:49:35.114Z,2.70
2019-06-10T02:50:28.364Z,2.70
2019-06-10T02:51:27.487Z,3.10
2019-06-10T02:52:30.996Z,2.60
2019-06-10T02:53:27.740Z,2.70
2019-06-10T02:54:28.745Z,3.00
2019-06-10T02:55:26.387Z,2.80
2019-06-10T02:56:25.323Z,2.90
2019-06-10T02:57:29.557Z,2.80
2019-06-10T02:58:23.076Z,2.80
2019-06-10T02:59:26.602Z,2.90
2019-06-10T03:00:34.309Z,2.70
2019-06-10T03:01:27.556Z,2.70
2019-06-10T03:02:23.733Z,2.80
2019-06-10T03:03:35.121Z,2.70
2019-06-10T03:04:26.683Z,2.90
2019-06-10T03:05:26.837Z,2.80
2019-06-10T03:06:29.835Z,2.80
2019-06-10T03:07:26.764Z,2.80
2019-06-10T03:08:26.834Z,2.80
2019-06-10T03:09:27.461Z,3.00
2019-06-10T03:10:29.555Z,3.00
2019-06-10T03:11:29.606Z,2.90
2019-06-10T03:12:24.279Z,3.30
2019-06-10T03:13:24.223Z,3.00
2019-06-10T03:14:24.142Z,2.70
2019-06-10T03:15:25.157Z,3.10
2019-06-10T03:16:24.413Z,2.70
2019-06-10T03:17:24.750Z,2.90
2019-06-10T03:18:24.763Z,3.10
2019-06-10T03:19:38.444Z,2.90
2019-06-10T03:20:24.704Z,2.90
2019-06-10T03:21:24.643Z,3.00
2019-06-10T03:22:24.505Z,2.90
2019-06-10T03:23:25.144Z,3.00
2019-06-10T03:24:25.095Z,2.70
2019-06-10T03:25:25.710Z,3.00
2019-06-10T03:26:24.358Z,3.00
2019-06-10T03:27:24.564Z,2.90
2019-06-10T03:28:25.242Z,2.90
2019-06-10T03:29:24.928Z,3.10
2019-06-10T03:30:39.403Z,2.80
2019-06-10T03:31:31.258Z,2.70
2019-06-10T03:32:32.330Z,2.90
2019-06-10T03:33:31.495Z,2.90
2019-06-10T03:34:33.648Z,3.10
2019-06-10T03:35:25.171Z,2.90
2019-06-10T03:36:25.819Z,2.90
2019-06-10T03:37:26.002Z,3.00
2019-06-10T03:38:26.999Z,2.80
2019-06-10T03:39:26.895Z,3.10
2019-06-10T03:40:26.139Z,2.80
2019-06-10T03:41:25.345Z,3.30
2019-06-10T03:42:26.427Z,2.70
2019-06-10T03:43:26.294Z,2.80
2019-06-10T03:44:26.350Z,2.90
2019-06-10T03:45:26.716Z,3.30
2019-06-10T03:46:26.656Z,3.30
2019-06-10T03:47:27.116Z,2.90
2019-06-10T03:48:26.757Z,3.00
2019-06-10T03:49:26.865Z,2.90
2019-06-10T03:50:27.075Z,2.70
2019-06-10T03:51:27.425Z,3.00
2019-06-10T03:52:25.636Z,3.10
2019-06-10T03:53:26.770Z,3.10
2019-06-10T03:54:29.055Z,3.20
2019-06-10T03:55:27.608Z,3.10
2019-06-10T03:56:25.475Z,3.00
2019-06-10T03:57:26.835Z,2.80
2019-06-10T03:58:27.606Z,3.20
2019-06-10T03:59:27.770Z,2.80
2019-06-10T04:00:27.205Z,2.90
2019-06-10T04:01:28.619Z,3.00
2019-06-10T04:02:26.848Z,2.90
2019-06-10T04:03:27.746Z,3.10
2019-06-10T04:04:26.730Z,2.90
2019-06-10T04:05:27.012Z,2.80
2019-06-10T04:06:27.147Z,2.90
2019-06-10T04:07:30.568Z,2.80
2019-06-10T04:08:26.571Z,3.20
2019-06-10T04:09:27.081Z,2.70
2019-06-10T04:10:28.221Z,2.90
2019-06-10T04:11:27.048Z,2.90
2019-06-10T04:12:27.455Z,3.10
2019-06-10T04:13:27.263Z,2.50
2019-06-10T04:14:26.744Z,3.00
2019-06-10T04:15:28.326Z,2.70
2019-06-10T04:16:27.183Z,2.90
2019-06-10T04:17:27.377Z,3.10
2019-06-10T04:18:28.178Z,2.90
2019-06-10T04:19:27.478Z,2.90
2019-06-10T04:20:28.293Z,3.20
2019-06-10T04:21:27.237Z,3.10
2019-06-10T04:22:26.850Z,3.00
2019-06-10T04:23:27.267Z,2.80
2019-06-10T04:24:27.335Z,3.00
2019-06-10T04:25:29.213Z,3.10
2019-06-10T04:26:28.485Z,2.90
2019-06-10T04:27:28.368Z,2.80
2019-06-10T04:28:27.606Z,2.80
2019-06-10T04:29:27.698Z,2.90
2019-06-10T04:30:28.116Z,3.10
2019-06-10T04:31:28.017Z,3.10
2019-06-10T04:32:27.809Z,2.90
2019-06-10T04:33:27.640Z,2.70
2019-06-10T04:34:29.892Z,3.00
2019-06-10T04:35:27.965Z,3.30
2019-06-10T04:36:28.155Z,2.70
2019-06-10T04:37:28.126Z,3.30
2019-06-10T04:38:27.907Z,3.10
2019-06-10T04:39:28.049Z,3.00
2019-06-10T04:40:29.036Z,3.00
2019-06-10T04:41:29.134Z,3.00
2019-06-10T04:42:28.911Z,3.10
2019-06-10T04:43:28.911Z,3.20
2019-06-10T04:44:29.345Z,3.00
2019-06-10T04:45:29.123Z,3.00
2019-06-10T04:46:29.530Z,2.80
2019-06-10T04:47:29.567Z,2.80
2019-06-10T04:48:29.347Z,3.00
2019-06-10T04:49:28.623Z,3.30
2019-06-10T04:50:39.108Z,3.50
2019-06-10T04:51:29.696Z,2.90
2019-06-10T04:52:29.666Z,3.20
2019-06-10T04:53:29.433Z,3.00
2019-06-10T04:54:29.910Z,3.00
2019-06-10T04:55:29.313Z,3.10
2019-06-10T04:56:29.349Z,3.20
2019-06-10T04:57:29.641Z,2.90
2019-06-10T04:58:30.081Z,3.00
2019-06-10T04:59:30.061Z,3.30
2019-06-10T05:00:30.240Z,3.30
2019-06-10T05:01:30.092Z,3.30
2019-06-10T05:02:30.056Z,3.10
2019-06-10T05:03:29.571Z,2.90
2019-06-10T05:04:30.586Z,2.90
2019-06-10T05:05:30.066Z,2.90
2019-06-10T05:06:29.789Z,2.90
2019-06-10T05:07:34.154Z,2.90
2019-06-10T05:08:29.641Z,2.80
2019-06-10T05:09:30.576Z,3.10
2019-06-10T05:10:29.936Z,3.30
2019-06-10T05:11:30.733Z,2.90
2019-06-10T05:12:29.710Z,3.00
2019-06-10T05:13:29.978Z,3.20
2019-06-10T05:14:30.946Z,2.90
2019-06-10T05:15:31.703Z,3.10
2019-06-10T05:16:32.204Z,3.00
2019-06-10T05:17:31.803Z,3.10
2019-06-10T05:18:30.294Z,3.00
2019-06-10T05:19:31.369Z,3.10
2019-06-10T05:20:50.372Z,2.90
2019-06-10T05:21:31.544Z,3.10
2019-06-10T05:22:32.663Z,2.90
2019-06-10T05:23:32.634Z,2.90
2019-06-10T05:24:34.061Z,3.10
2019-06-10T05:25:32.644Z,2.80
2019-06-10T05:26:32.960Z,3.00
2019-06-10T05:27:32.905Z,3.10
2019-06-10T05:28:30.513Z,3.30
2019-06-10T05:29:31.240Z,3.30
2019-06-10T05:30:31.732Z,3.00
2019-06-10T05:31:34.647Z,3.00
2019-06-10T05:32:33.293Z,3.00
2019-06-10T05:33:33.220Z,3.10
2019-06-10T05:34:34.524Z,3.30
2019-06-10T05:35:33.758Z,2.90
2019-06-10T05:36:34.360Z,2.70
2019-06-10T05:37:33.657Z,2.80
2019-06-10T05:38:34.894Z,3.00
2019-06-10T05:39:34.332Z,3.00
2019-06-10T05:40:33.748Z,3.20
2019-06-10T05:41:34.842Z,2.90
2019-06-10T05:42:35.835Z,2.90
2019-06-10T05:43:34.401Z,3.20
2019-06-10T05:44:34.409Z,2.60
2019-06-10T05:45:34.457Z,2.90
2019-06-10T05:46:34.670Z,2.80
2019-06-10T05:47:35.866Z,3.00
2019-06-10T05:48:33.699Z,2.90
2019-06-10T05:49:34.298Z,3.00
2019-06-10T05:50:33.584Z,2.80
2019-06-10T05:51:35.083Z,3.00
2019-06-10T05:52:33.867Z,2.90
2019-06-10T05:53:35.003Z,3.10
2019-06-10T05:54:34.033Z,2.90
2019-06-10T05:55:33.768Z,3.10
2019-06-10T05:56:34.239Z,3.20
2019-06-10T05:57:34.129Z,2.90
2019-06-10T05:58:34.478Z,3.10
2019-06-10T05:59:34.513Z,3.10
2019-06-10T06:00:35.257Z,2.90
2019-06-10T06:01:37.984Z,2.80
2019-06-10T06:02:35.068Z,2.70
2019-06-10T06:03:35.121Z,2.90
2019-06-10T06:04:34.721Z,2.80
2019-06-10T06:05:34.472Z,3.00
2019-06-10T06:06:35.187Z,2.80
2019-06-10T06:07:34.319Z,2.90
2019-06-10T06:08:35.335Z,2.90
2019-06-10T06:09:35.159Z,2.70
2019-06-10T06:10:35.490Z,2.50
2019-06-10T06:11:35.187Z,2.90
2019-06-10T06:12:34.529Z,3.00
2019-06-10T06:13:35.919Z,2.80
2019-06-10T06:14:34.715Z,2.90
2019-06-10T06:15:35.791Z,2.80
2019-06-10T06:16:36.095Z,2.90
2019-06-10T06:17:35.346Z,3.00
2019-06-10T06:18:36.356Z,3.00
2019-06-10T06:19:37.373Z,3.00
2019-06-10T06:20:35.587Z,2.90
2019-06-10T06:21:40.313Z,3.00
2019-06-10T06:22:35.558Z,2.90
2019-06-10T06:23:36.680Z,3.00
2019-06-10T06:24:35.585Z,2.70
2019-06-10T06:25:39.803Z,2.70
2019-06-10T06:26:37.921Z,3.10
2019-06-10T06:27:36.356Z,2.50
2019-06-10T06:28:36.083Z,3.00
2019-06-10T06:29:36.655Z,2.70
2019-06-10T06:30:36.145Z,2.70
2019-06-10T06:31:36.143Z,2.90
2019-06-10T06:32:36.326Z,2.80
2019-06-10T06:33:38.030Z,2.90
2019-06-10T06:34:35.904Z,2.80
2019-06-10T06:35:42.360Z,2.90
2019-06-10T06:36:36.411Z,2.80
2019-06-10T06:37:37.718Z,2.60
2019-06-10T06:38:36.784Z,2.60
2019-06-10T06:39:36.658Z,2.50
2019-06-10T06:40:37.181Z,2.80
2019-06-10T06:41:37.174Z,3.00
2019-06-10T06:42:36.707Z,2.50
2019-06-10T06:43:40.014Z,2.50
2019-06-10T06:44:37.679Z,2.60
2019-06-10T06:45:37.373Z,2.60
2019-06-10T06:46:37.819Z,2.60
2019-06-10T06:47:36.075Z,2.60
2019-06-10T06:48:38.757Z,2.90
2019-06-10T06:49:37.066Z,2.40
2019-06-10T06:50:37.392Z,2.70
2019-06-10T06:51:49.521Z,2.40
2019-06-10T06:53:13.976Z,2.80
2019-06-10T06:53:45.303Z,2.60
2019-06-10T06:54:36.566Z,2.80
2019-06-10T06:55:36.884Z,2.70
2019-06-10T06:56:37.702Z,2.70
2019-06-10T06:57:37.302Z,2.60
2019-06-10T06:58:37.329Z,2.60
2019-06-10T06:59:37.374Z,2.80
2019-06-10T07:00:53.149Z,2.60
2019-06-10T07:01:38.048Z,2.90
2019-06-10T07:02:37.565Z,2.80
2019-06-10T07:03:38.249Z,2.70
2019-06-10T07:04:37.465Z,2.70
2019-06-10T07:05:37.555Z,2.70
2019-06-10T07:06:37.430Z,2.60
2019-06-10T07:07:37.419Z,2.50
2019-06-10T07:08:38.097Z,2.50
2019-06-10T07:09:37.462Z,2.70
2019-06-10T07:10:37.361Z,2.40
2019-06-10T07:11:38.591Z,2.50
2019-06-10T07:12:38.213Z,2.80
2019-06-10T07:13:39.173Z,2.60
2019-06-10T07:14:38.854Z,2.50
2019-06-10T07:15:38.905Z,2.50
2019-06-10T07:16:39.173Z,2.40
2019-06-10T07:17:39.009Z,2.30
2019-06-10T07:18:41.673Z,2.40
2019-06-10T07:19:39.544Z,2.30
2019-06-10T07:20:38.237Z,2.20
2019-06-10T07:21:58.508Z,2.20
2019-06-10T07:22:40.064Z,2.40
2019-06-10T07:23:40.594Z,2.80
2019-06-10T07:24:40.691Z,2.20
2019-06-10T07:25:39.091Z,2.20
2019-06-10T07:26:44.168Z,2.40
2019-06-10T07:27:40.077Z,2.50
2019-06-10T07:28:40.257Z,2.40
2019-06-10T07:29:39.179Z,2.20
2019-06-10T07:30:41.531Z,2.40
2019-06-10T07:31:39.614Z,2.30
2019-06-10T07:32:39.187Z,2.40
2019-06-10T07:33:40.890Z,2.20
2019-06-10T07:34:38.867Z,2.50
2019-06-10T07:35:38.919Z,2.40
2019-06-10T07:36:38.960Z,2.90
2019-06-10T07:37:39.450Z,2.90
2019-06-10T07:38:40.767Z,2.70
2019-06-10T07:39:39.577Z,2.70
2019-06-10T07:40:39.221Z,2.30
2019-06-10T07:41:39.269Z,2.10
2019-06-10T07:42:39.065Z,2.60
2019-06-10T07:43:42.435Z,2.30
2019-06-10T07:44:39.155Z,2.30
2019-06-10T07:45:41.531Z,2.80
2019-06-10T07:46:39.398Z,2.40
2019-06-10T07:47:39.271Z,2.40
2019-06-10T07:48:41.054Z,2.50
2019-06-10T07:49:39.398Z,2.30
2019-06-10T07:50:39.463Z,2.50
2019-06-10T07:51:39.562Z,2.40
2019-06-10T07:52:39.588Z,2.20
2019-06-10T07:53:40.337Z,2.40
2019-06-10T07:54:39.716Z,2.30
2019-06-10T07:55:39.828Z,2.20
2019-06-10T07:56:45.236Z,2.10
2019-06-10T07:57:42.625Z,2.10
2019-06-10T07:58:40.172Z,2.20
2019-06-10T07:59:40.036Z,2.50
2019-06-10T08:00:42.912Z,2.20
2019-06-10T08:01:45.954Z,2.30
2019-06-10T08:02:42.817Z,2.40
2019-06-10T08:03:40.292Z,2.10
2019-06-10T08:04:42.921Z,2.30
2019-06-10T08:05:43.235Z,2.30
2019-06-10T08:06:42.864Z,2.40
2019-06-10T08:07:41.483Z,2.40
2019-06-10T08:08:44.838Z,2.30
2019-06-10T08:09:43.532Z,2.40
2019-06-10T08:10:44.762Z,2.10
2019-06-10T08:11:44.445Z,2.30
2019-06-10T08:12:41.851Z,2.20
2019-06-10T08:13:44.661Z,2.80
2019-06-10T08:14:42.756Z,2.40
2019-06-10T08:15:44.237Z,2.40
2019-06-10T08:16:44.786Z,2.30
2019-06-10T08:17:42.937Z,2.30
2019-06-10T08:18:57.035Z,2.50
2019-06-10T08:19:46.763Z,2.30
2019-06-10T08:20:43.230Z,2.30
2019-06-10T08:21:44.102Z,2.40
2019-06-10T08:22:50.161Z,2.70
2019-06-10T08:23:44.730Z,2.50
2019-06-10T08:24:43.716Z,2.60
2019-06-10T08:25:46.865Z,2.40
2019-06-10T08:26:43.699Z,2.50
2019-06-10T08:27:45.477Z,2.50
2019-06-10T08:28:45.123Z,2.30
2019-06-10T08:29:46.167Z,2.50
2019-06-10T08:30:42.964Z,2.50
2019-06-10T08:31:46.530Z,2.50
2019-06-10T08:32:45.273Z,2.40
2019-06-10T08:33:45.404Z,2.20
2019-06-10T08:34:44.620Z,2.20
2019-06-10T08:35:52.076Z,2.40
2019-06-10T08:36:47.214Z,2.70
2019-06-10T08:37:43.212Z,2.40
2019-06-10T08:38:45.025Z,2.00
2019-06-10T08:39:44.384Z,2.30
2019-06-10T08:40:44.934Z,2.40
2019-06-10T08:41:45.578Z,2.40
2019-06-10T08:42:44.214Z,2.30
2019-06-10T08:43:45.202Z,2.20
2019-06-10T08:44:43.971Z,2.00
2019-06-10T08:45:44.167Z,2.30
2019-06-10T08:46:44.982Z,2.50
2019-06-10T08:47:45.627Z,2.00
2019-06-10T08:48:45.805Z,2.20
2019-06-10T08:49:45.871Z,2.40
2019-06-10T08:50:46.574Z,2.20
2019-06-10T08:51:47.096Z,2.20
2019-06-10T08:52:53.818Z,2.20
2019-06-10T08:53:46.566Z,2.30
2019-06-10T08:54:47.957Z,2.40
2019-06-10T08:55:46.105Z,2.20
2019-06-10T08:56:47.661Z,2.10
2019-06-10T08:57:48.790Z,2.60
2019-06-10T08:58:47.374Z,2.30
2019-06-10T08:59:46.632Z,2.10
2019-06-10T09:00:46.063Z,2.30
2019-06-10T09:01:48.343Z,2.20
2019-06-10T09:02:46.811Z,2.60
2019-06-10T09:03:48.589Z,2.20
2019-06-10T09:04:47.629Z,2.40
2019-06-10T09:05:49.035Z,2.20
2019-06-10T09:06:47.980Z,2.20
2019-06-10T09:07:49.233Z,2.30
2019-06-10T09:08:47.997Z,2.10
2019-06-10T09:09:47.407Z,2.40
2019-06-10T09:10:47.938Z,2.30
2019-06-10T09:11:47.920Z,2.40
2019-06-10T09:12:47.756Z,2.60
2019-06-10T09:13:47.981Z,2.40
2019-06-10T09:14:46.783Z,2.50
2019-06-10T09:15:55.101Z,2.30
2019-06-10T09:16:47.661Z,2.20
2019-06-10T09:17:47.955Z,2.10
2019-06-10T09:18:48.143Z,2.40
2019-06-10T09:19:47.878Z,2.40
2019-06-10T09:20:49.654Z,2.20
2019-06-10T09:21:50.878Z,2.20
2019-06-10T09:22:48.567Z,2.20
2019-06-10T09:23:48.492Z,1.80
2019-06-10T09:24:49.049Z,2.10
2019-06-10T09:25:48.886Z,2.00
2019-06-10T09:26:48.665Z,2.00
2019-06-10T09:27:47.987Z,2.20
2019-06-10T09:28:51.303Z,2.10
2019-06-10T09:29:49.647Z,2.00
2019-06-10T09:30:50.437Z,2.30
2019-06-10T09:31:49.650Z,2.10
2019-06-10T09:32:49.973Z,2.30
2019-06-10T09:33:50.239Z,2.00
2019-06-10T09:34:51.613Z,2.10
2019-06-10T09:35:49.559Z,2.40
2019-06-10T09:36:49.561Z,2.00
2019-06-10T09:37:49.972Z,2.10
2019-06-10T09:38:48.702Z,2.20
2019-06-10T09:39:52.304Z,2.00
2019-06-10T09:40:51.505Z,2.10
2019-06-10T09:41:55.393Z,2.20
2019-06-10T09:42:49.717Z,2.10
2019-06-10T09:43:50.819Z,2.20
2019-06-10T09:44:49.213Z,2.20
2019-06-10T09:45:49.136Z,2.10
2019-06-10T09:46:48.961Z,2.10
2019-06-10T09:47:50.611Z,2.10
2019-06-10T09:48:51.180Z,2.10
2019-06-10T09:49:49.195Z,2.30
2019-06-10T09:50:51.265Z,2.20
2019-06-10T09:51:50.610Z,2.00
2019-06-10T09:52:51.258Z,2.10
2019-06-10T09:53:56.336Z,2.00
2019-06-10T09:54:55.720Z,2.00
2019-06-10T09:55:50.982Z,2.20
2019-06-10T09:56:49.846Z,2.40
2019-06-10T09:57:53.157Z,1.90
2019-06-10T09:58:50.580Z,2.00
2019-06-10T09:59:54.033Z,2.00
2019-06-10T10:00:51.052Z,2.10
2019-06-10T10:01:51.974Z,2.10
2019-06-10T10:02:51.481Z,2.00
2019-06-10T10:03:53.850Z,2.10
2019-06-10T10:04:52.531Z,2.00
2019-06-10T10:05:59.438Z,1.70
2019-06-10T10:06:51.841Z,2.10
2019-06-10T10:07:51.869Z,2.00
2019-06-10T10:08:52.399Z,1.90
2019-06-10T10:09:51.779Z,2.10
2019-06-10T10:10:51.999Z,1.80
2019-06-10T10:11:50.430Z,2.10
2019-06-10T10:12:49.493Z,1.90
2019-06-10T10:13:49.900Z,2.10
2019-06-10T10:14:51.405Z,2.00
2019-06-10T10:15:50.482Z,2.10
2019-06-10T10:16:52.836Z,1.80
2019-06-10T10:17:49.924Z,2.10
2019-06-10T10:18:52.301Z,1.90
2019-06-10T10:19:50.328Z,2.00
2019-06-10T10:20:51.249Z,2.00
2019-06-10T10:21:55.098Z,1.90
2019-06-10T10:22:50.606Z,2.10
2019-06-10T10:24:01.317Z,1.90
2019-06-10T10:24:49.568Z,2.10
2019-06-10T10:25:51.906Z,1.80
2019-06-10T10:26:52.375Z,2.10
2019-06-10T10:27:53.164Z,1.90
2019-06-10T10:28:51.776Z,2.20
2019-06-10T10:29:52.340Z,1.90
2019-06-10T10:30:52.573Z,2.10
2019-06-10T10:31:52.320Z,2.10
2019-06-10T10:32:52.252Z,2.50
2019-06-10T10:33:50.580Z,1.80
2019-06-10T10:34:51.618Z,2.20
2019-06-10T10:35:50.675Z,2.50
2019-06-10T10:36:54.950Z,2.10
2019-06-10T10:37:53.858Z,2.30
2019-06-10T10:38:50.902Z,2.00
2019-06-10T10:39:53.806Z,2.00
2019-06-10T10:40:57.940Z,2.10
2019-06-10T10:41:54.424Z,2.10
2019-06-10T10:42:57.129Z,1.70
2019-06-10T10:43:55.760Z,1.90
2019-06-10T10:44:52.968Z,2.40
2019-06-10T10:45:54.262Z,2.20
2019-06-10T10:46:53.764Z,2.10
2019-06-10T10:47:52.614Z,2.30
2019-06-10T10:48:53.365Z,1.80
2019-06-10T10:49:55.256Z,2.20
2019-06-10T10:50:54.561Z,2.30
2019-06-10T10:51:51.437Z,2.00
2019-06-10T10:52:52.295Z,2.10
2019-06-10T10:54:15.376Z,2.10
2019-06-10T10:54:53.948Z,2.10
2019-06-10T10:55:51.994Z,1.90
2019-06-10T10:56:55.239Z,2.30
2019-06-10T10:57:54.324Z,2.10
2019-06-10T10:58:57.778Z,2.10
2019-06-10T10:59:55.690Z,2.20
2019-06-10T11:00:56.279Z,2.30
2019-06-10T11:01:52.186Z,2.10
2019-06-10T11:02:53.065Z,2.10
2019-06-10T11:03:56.930Z,2.10
2019-06-10T11:04:55.162Z,2.20
2019-06-10T11:06:00.092Z,2.20
2019-06-10T11:06:56.549Z,1.80
2019-06-10T11:07:55.199Z,2.20
2019-06-10T11:08:57.414Z,2.30
2019-06-10T11:09:55.167Z,2.30
2019-06-10T11:10:57.795Z,2.20
2019-06-10T11:11:54.882Z,2.20
2019-06-10T11:12:54.109Z,2.20
2019-06-10T11:13:56.700Z,2.20
2019-06-10T11:14:55.290Z,2.20
2019-06-10T11:15:55.343Z,2.00
2019-06-10T11:16:56.854Z,2.30
2019-06-10T11:17:55.145Z,2.00
2019-06-10T11:18:56.158Z,2.30
2019-06-10T11:19:55.581Z,2.00
2019-06-10T11:20:54.132Z,2.60
2019-06-10T11:21:53.686Z,2.30
2019-06-10T11:22:53.683Z,2.30
2019-06-10T11:23:57.426Z,2.30
2019-06-10T11:24:56.047Z,2.50
2019-06-10T11:25:57.066Z,2.20
2019-06-10T11:26:56.449Z,2.30
2019-06-10T11:27:55.748Z,2.20
2019-06-10T11:28:55.642Z,1.90
2019-06-10T11:29:57.366Z,2.40
2019-06-10T11:30:56.719Z,2.20
2019-06-10T11:31:56.671Z,2.70
2019-06-10T11:32:57.212Z,2.20
2019-06-10T11:33:57.323Z,2.30
2019-06-10T11:34:56.954Z,2.20
2019-06-10T11:35:57.471Z,2.20
2019-06-10T11:36:56.286Z,1.90
2019-06-10T11:37:56.418Z,2.30
2019-06-10T11:38:57.385Z,2.20
2019-06-10T11:39:55.041Z,2.40
2019-06-10T11:40:58.127Z,2.60
2019-06-10T11:41:56.137Z,2.50
2019-06-10T11:42:59.231Z,1.90
2019-06-10T11:43:57.764Z,2.20
2019-06-10T11:44:57.939Z,2.30
2019-06-10T11:46:02.986Z,2.20
2019-06-10T11:46:58.149Z,2.10
2019-06-10T11:47:56.679Z,2.10
2019-06-10T11:48:57.295Z,2.30
2019-06-10T11:49:56.505Z,1.90
2019-06-10T11:50:58.419Z,2.20
2019-06-10T11:51:56.464Z,2.10
2019-06-10T11:53:00.265Z,2.20
2019-06-10T11:53:57.188Z,2.10
2019-06-10T11:55:09.100Z,2.00
2019-06-10T11:55:56.394Z,2.00
2019-06-10T11:56:57.988Z,2.20
2019-06-10T11:57:57.716Z,2.20
2019-06-10T11:58:58.572Z,2.30
2019-06-10T11:59:57.694Z,2.30
2019-06-10T12:00:58.747Z,2.50
2019-06-10T12:01:59.867Z,2.20
2019-06-10T12:02:58.584Z,2.30
2019-06-10T12:03:58.839Z,2.20
2019-06-10T12:04:58.691Z,2.40
2019-06-10T12:05:59.373Z,2.00
2019-06-10T12:06:57.071Z,2.00
2019-06-10T12:07:59.797Z,2.20
2019-06-10T12:08:58.785Z,2.40
2019-06-10T12:09:59.140Z,2.10
2019-06-10T12:11:00.500Z,2.40
2019-06-10T12:12:01.418Z,2.10
2019-06-10T12:12:58.946Z,2.30
2019-06-10T12:14:01.882Z,2.00
2019-06-10T12:14:59.509Z,2.10
2019-06-10T12:17:27.529Z,2.30
2019-06-10T12:18:03.506Z,2.00
2019-06-10T12:18:58.686Z,2.30
2019-06-10T12:20:00.871Z,2.20
2019-06-10T12:21:01.552Z,2.10
2019-06-10T12:22:01.405Z,2.20
2019-06-10T12:22:59.607Z,2.10
2019-06-10T12:24:00.902Z,2.00
2019-06-10T12:25:26.381Z,2.10
2019-06-10T12:25:59.423Z,2.20
2019-06-10T12:26:59.850Z,2.00
2019-06-10T12:28:01.839Z,2.10
2019-06-10T12:29:00.249Z,2.20
2019-06-10T12:29:59.632Z,2.00
2019-06-10T12:31:01.475Z,2.50
2019-06-10T12:32:01.614Z,2.40
2019-06-10T12:32:59.525Z,2.30
2019-06-10T12:34:00.403Z,2.20
2019-06-10T12:34:59.754Z,1.90
2019-06-10T12:36:01.235Z,2.00
2019-06-10T12:37:07.385Z,2.20
2019-06-10T12:38:01.291Z,2.10
2019-06-10T12:39:06.686Z,2.30
2019-06-10T12:39:59.878Z,2.00
2019-06-10T12:41:00.691Z,2.50
2019-06-10T12:41:59.833Z,2.30
2019-06-10T12:43:00.725Z,2.30
2019-06-10T12:44:00.264Z,1.90
2019-06-10T12:45:00.658Z,1.90
2019-06-10T12:46:00.694Z,2.10
2019-06-10T12:47:02.102Z,2.10
2019-06-10T12:48:00.319Z,2.10
2019-06-10T12:49:02.092Z,2.30
2019-06-10T12:49:59.440Z,2.00
2019-06-10T12:51:01.684Z,2.00
2019-06-10T12:51:59.572Z,2.10
2019-06-10T12:53:00.689Z,2.10
2019-06-10T12:53:59.708Z,2.10
2019-06-10T12:54:59.775Z,2.10
2019-06-10T12:56:01.326Z,2.10
2019-06-10T12:57:00.618Z,2.30
2019-06-10T12:57:59.979Z,2.20
2019-06-10T12:59:02.834Z,2.40
2019-06-10T13:00:01.137Z,2.40
2019-06-10T13:01:01.265Z,2.20
2019-06-10T13:02:07.838Z,2.00
2019-06-10T13:03:03.742Z,2.00
2019-06-10T13:04:04.376Z,2.00
2019-06-10T13:05:03.126Z,2.00
2019-06-10T13:06:03.602Z,2.10
2019-06-10T13:07:04.994Z,2.30
2019-06-10T13:08:04.008Z,2.10
2019-06-10T13:09:03.659Z,1.90
2019-06-10T13:10:02.614Z,2.10
2019-06-10T13:11:02.012Z,2.00
2019-06-10T13:12:02.087Z,2.00
2019-06-10T13:13:06.651Z,2.10
2019-06-10T13:14:04.044Z,2.30
2019-06-10T13:15:04.777Z,2.10
2019-06-10T13:16:06.620Z,2.00
2019-06-10T13:17:02.954Z,1.90
2019-06-10T13:18:06.132Z,2.20
2019-06-10T13:19:04.536Z,2.00
2019-06-10T13:20:04.772Z,1.90